Time;durP1;ratioP1;P1;durP2;ratioP2;P2;SDS_P1;SDS_P2;PMS_P1;PMS_P2;Temp;Humidity;BMP_temperature;BMP_pressure;BME280_temperature;BME280_humidity;BME280_pressure;Samples;Min_cycle;Max_cycle;Signal;HPM_P1;HPM_P2
2022/09/13 00:00:27;;;;;;;;;;;;;;;;;;1038115;28;3839;-57
2022/09/13 00:01:18;;;;;;;;;;;;;;;;;;1038740;28;4001;-58
2022/09/13 00:01:48;;;;;;;;;;;;;;;;;;1043081;28;3786;-58
2022/09/13 00:02:18;;;;;;;;;;;;;;;;;;1044565;28;4207;-56
2022/09/13 00:02:49;;;;;;;;;;;;;;;;;;1044220;28;3453;-57
2022/09/13 00:03:19;;;;;;;;;;;;;;;;;;1044386;28;4076;-59
2022/09/13 00:03:49;;;;;;;;;;;;;;;;;;1044027;28;3009;-58
2022/09/13 00:04:19;;;;;;;;;;;;;;;;;;1043643;28;4059;-55
2022/09/13 00:04:50;;;;;;;;;;;;;;;;;;1043954;28;3075;-59
2022/09/13 00:05:20;;;;;;;;;;;;;;;;;;1044146;28;3832;-55
2022/09/13 00:05:50;;;;;;;;;;;;;;;;;;1043239;28;3007;-57
2022/09/13 00:06:21;;;;;;;;;;;;;;;;;;1041193;28;3969;-56
2022/09/13 00:06:52;;;;;;;;;;;;;;;;;;1043828;28;3257;-58
2022/09/13 00:07:22;;;;;;;;;;;;;;;;;;1044176;28;3874;-59
2022/09/13 00:07:54;;;;;;;;;;;;;;;;;;1048294;28;3407;-58
2022/09/13 00:08:24;;;;;;;;;;;;;;;;;;1046344;28;4358;-59
2022/09/13 00:08:54;;;;;;;;;;;;;;;;;;1047463;28;2954;-57
2022/09/13 00:09:25;;;;;;;;;;;;;;;;;;1044012;28;4021;-57
2022/09/13 00:09:55;;;;;;;;;;;;;;;;;;1045829;28;3432;-55
2022/09/13 00:10:26;;;;;;;;;;;;;;;;;;1045617;28;4013;-57
2022/09/13 00:10:56;;;;;;;;;;;;;;;;;;1045860;28;4323;-58
2022/09/13 00:11:27;;;;;;;;;;;;;;;;;;1044112;28;4206;-54
2022/09/13 00:11:59;;;;;;;;;;;;;;;;;;1044752;28;4106;-56
2022/09/13 00:12:30;;;;;;;;;;;;;;;;;;1044997;28;3973;-59
2022/09/13 00:13:00;;;;;;;;;;;;;;;;;;1045009;28;4247;-59
2022/09/13 00:13:31;;;;;;;;;;;;;;;;;;1044321;28;3077;-56
2022/09/13 00:14:01;;;;;;;;;;;;;;;;;;1044144;28;3820;-57
2022/09/13 00:14:31;;;;;;;;;;;;;;;;;;1042472;28;4111;-58
2022/09/13 00:15:02;;;;;;;;;;;;;;;;;;1044186;28;3884;-57
2022/09/13 00:15:32;;;;;;;;;;;;;;;;;;1043253;28;3268;-56
2022/09/13 00:16:04;;;;;;;;;;;;;;;;;;1043762;28;3911;-59
2022/09/13 00:16:34;;;;;;;;;;;;;;;;;;1043692;28;3836;-59
2022/09/13 00:17:04;;;;;;;;;;;;;;;;;;1041639;28;3949;-56
2022/09/13 00:17:36;;;;;;;;;;;;;;;;;;1043282;28;2917;-58
2022/09/13 00:18:06;;;;;;;;;;;;;;;;;;1041895;28;3949;-58
2022/09/13 00:18:36;;;;;;;;;;;;;;;;;;1043261;28;3606;-58
2022/09/13 00:19:06;;;;;;;;;;;;;;;;;;1042282;28;4282;-57
2022/09/13 00:19:37;;;;;;;;;;;;;;;;;;1042901;28;3352;-55
2022/09/13 00:20:08;;;;;;;;;;;;;;;;;;1043258;28;3942;-57
2022/09/13 00:20:38;;;;;;;;;;;;;;;;;;1043325;28;3490;-58
2022/09/13 00:21:10;;;;;;;;;;;;;;;;;;1043573;28;4019;-56
2022/09/13 00:21:41;;;;;;;;;;;;;;;;;;1043861;28;3058;-55
2022/09/13 00:22:12;;;;;;;;;;;;;;;;;;1038593;28;3901;-56
2022/09/13 00:22:42;;;;;;;;;;;;;;;;;;1037659;28;3739;-57
2022/09/13 00:23:13;;;;;;;;;;;;;;;;;;1039294;28;4230;-59
2022/09/13 00:23:44;;;;;;;;;;;;;;;;;;1040630;28;3320;-54
2022/09/13 00:24:14;;;;;;;;;;;;;;;;;;1042168;28;3873;-59
2022/09/13 00:24:44;;;;;;;;;;;;;;;;;;1042471;28;3866;-59
2022/09/13 00:25:15;;;;;;;;;;;;;;;;;;1043970;28;4057;-56
2022/09/13 00:25:45;;;;;;;;;;;;;;;;;;1043222;28;2394;-56
2022/09/13 00:26:18;;;;;;;;;;;;;;;;;;1042360;28;4115;-58
2022/09/13 00:26:48;;;;;;;;;;;;;;;;;;1043803;28;3418;-59
2022/09/13 00:27:19;;;;;;;;;;;;;;;;;;1045273;28;4078;-53
2022/09/13 00:27:50;;;;;;;;;;;;;;;;;;1043147;28;3515;-59
2022/09/13 00:28:20;;;;;;;;;;;;;;;;;;1043733;28;3870;-59
2022/09/13 00:28:51;;;;;;;;;;;;;;;;;;1042378;28;3751;-58
2022/09/13 00:29:21;;;;;;;;;;;;;;;;;;1044423;28;3937;-58
2022/09/13 00:29:51;;;;;;;;;;;;;;;;;;1045551;28;3569;-56
2022/09/13 00:30:21;;;;;;;;;;;;;;;;;;1045042;28;4035;-56
2022/09/13 00:30:52;;;;;;;;;;;;;;;;;;1044565;28;3722;-57
2022/09/13 00:31:25;;;;;;;;;;;;;;;;;;1045317;28;4014;-59
2022/09/13 00:31:55;;;;;;;;;;;;;;;;;;1043068;28;3685;-56
2022/09/13 00:32:26;;;;;;;;;;;;;;;;;;1044405;28;3930;-56
2022/09/13 00:32:56;;;;;;;;;;;;;;;;;;1043348;28;3046;-59
2022/09/13 00:33:40;;;;;;;;;;;;;;;;;;1044059;28;4046;-55
2022/09/13 00:34:17;;;;;;;;;;;;;;;;;;1044594;28;4089;-57
2022/09/13 00:34:48;;;;;;;;;;;;;;;;;;1043032;28;3363;-58
2022/09/13 00:35:19;;;;;;;;;;;;;;;;;;1042901;28;4158;-59
2022/09/13 00:35:49;;;;;;;;;;;;;;;;;;1044076;28;3512;-56
2022/09/13 00:36:19;;;;;;;;;;;;;;;;;;1042231;28;3895;-59
2022/09/13 00:36:50;;;;;;;;;;;;;;;;;;1045688;28;3539;-56
2022/09/13 00:37:20;;;;;;;;;;;;;;;;;;1043791;28;3875;-55
2022/09/13 00:37:50;;;;;;;;;;;;;;;;;;1044113;28;2918;-55
2022/09/13 00:38:21;;;;;;;;;;;;;;;;;;1041289;28;4126;-58
2022/09/13 00:38:51;;;;;;;;;;;;;;;;;;1045206;28;3602;-57
2022/09/13 00:39:21;;;;;;;;;;;;;;;;;;1044178;28;4056;-58
2022/09/13 00:39:52;;;;;;;;;;;;;;;;;;1043901;28;3073;-57
2022/09/13 00:40:22;;;;;;;;;;;;;;;;;;1047899;28;4029;-57
2022/09/13 00:40:52;;;;;;;;;;;;;;;;;;1047970;28;3134;-54
2022/09/13 00:41:22;;;;;;;;;;;;;;;;;;1047343;28;3843;-57
2022/09/13 00:41:52;;;;;;;;;;;;;;;;;;1043517;28;3354;-57
2022/09/13 00:42:24;;;;;;;;;;;;;;;;;;1043279;28;3771;-57
2022/09/13 00:42:54;;;;;;;;;;;;;;;;;;1043517;28;4026;-58
2022/09/13 00:43:41;;;;;;;;;;;;;;;;;;1044318;28;3922;-55
2022/09/13 00:44:30;;;;;;;;;;;;;;;;;;1045322;28;4133;-57
2022/09/13 00:45:13;;;;;;;;;;;;;;;;;;1044360;28;4226;-58
2022/09/13 00:45:44;;;;;;;;;;;;;;;;;;1036989;28;2595;-58
2022/09/13 00:46:24;;;;;;;;;;;;;;;;;;1040251;28;3892;-59
2022/09/13 00:47:02;;;;;;;;;;;;;;;;;;1040529;28;4031;-60
2022/09/13 00:47:38;;;;;;;;;;;;;;;;;;1043132;28;3782;-57
2022/09/13 00:48:13;;;;;;;;;;;;;;;;;;1044329;28;4113;-54
2022/09/13 00:48:45;;;;;;;;;;;;;;;;;;1044857;28;3626;-56
2022/09/13 00:49:21;;;;;;;;;;;;;;;;;;1044767;28;3896;-57
2022/09/13 00:49:55;;;;;;;;;;;;;;;;;;1044046;28;3071;-57
2022/09/13 00:50:32;;;;;;;;;;;;;;;;;;1043335;28;3836;-59
2022/09/13 00:51:05;;;;;;;;;;;;;;;;;;1051159;28;3879;-58
2022/09/13 00:51:35;;;;;;;;;;;;;;;;;;1051884;28;3194;-56
2022/09/13 00:52:14;;;;;;;;;;;;;;;;;;1052933;28;3912;-59
2022/09/13 00:52:46;;;;;;;;;;;;;;;;;;1047863;28;4076;-59
2022/09/13 00:53:31;;;;;;;;;;;;;;;;;;1043232;28;4088;-57
2022/09/13 00:54:02;;;;;;;;;;;;;;;;;;1043645;28;4008;-57
2022/09/13 00:54:38;;;;;;;;;;;;;;;;;;1043429;28;3325;-55
2022/09/13 00:55:18;;;;;;;;;;;;;;;;;;1043377;28;4156;-57
2022/09/13 00:55:51;;;;;;;;;;;;;;;;;;1043662;28;3603;-57
2022/09/13 00:56:24;;;;;;;;;;;;;;;;;;1043255;28;3940;-59
2022/09/13 00:56:57;;;;;;;;;;;;;;;;;;1043906;28;3780;-58
2022/09/13 00:57:28;;;;;;;;;;;;;;;;;;1044083;28;3968;-59
2022/09/13 00:58:01;;;;;;;;;;;;;;;;;;1044363;28;4048;-58
2022/09/13 00:58:38;;;;;;;;;;;;;;;;;;1042811;28;3991;-56
2022/09/13 00:59:16;;;;;;;;;;;;;;;;;;1042691;28;4303;-57
2022/09/13 00:59:51;;;;;;;;;;;;;;;;;;1042843;28;3506;-59
2022/09/13 01:00:21;;;;;;;;;;;;;;;;;;1043274;28;4246;-57
2022/09/13 01:00:52;;;;;;;;;;;;;;;;;;1044532;28;2998;-56
2022/09/13 01:01:25;;;;;;;;;;;;;;;;;;1043348;28;3892;-58
2022/09/13 01:01:55;;;;;;;;;;;;;;;;;;1043389;28;3778;-56
2022/09/13 01:02:27;;;;;;;;;;;;;;;;;;1043996;28;4102;-54
2022/09/13 01:03:01;;;;;;;;;;;;;;;;;;1044137;28;4244;-56
2022/09/13 01:03:33;;;;;;;;;;;;;;;;;;1040898;28;3953;-59
2022/09/13 01:04:04;;;;;;;;;;;;;;;;;;1036879;28;4028;-58
2022/09/13 01:04:35;;;;;;;;;;;;;;;;;;1037946;28;2854;-58
2022/09/13 01:05:06;;;;;;;;;;;;;;;;;;1040855;28;4093;-56
2022/09/13 01:05:39;;;;;;;;;;;;;;;;;;1043719;28;3641;-58
2022/09/13 01:06:12;;;;;;;;;;;;;;;;;;1043851;28;4123;-53
2022/09/13 01:06:42;;;;;;;;;;;;;;;;;;1045108;28;3340;-58
2022/09/13 01:07:14;;;;;;;;;;;;;;;;;;1044952;28;3804;-59
2022/09/13 01:07:45;;;;;;;;;;;;;;;;;;1046927;28;3207;-56
2022/09/13 01:08:21;;;;;;;;;;;;;;;;;;1044551;28;4029;-56
2022/09/13 01:08:52;;;;;;;;;;;;;;;;;;1040841;28;3419;-58
2022/09/13 01:09:22;;;;;;;;;;;;;;;;;;1040900;28;4100;-58
2022/09/13 01:09:53;;;;;;;;;;;;;;;;;;1041374;28;3284;-57
2022/09/13 01:10:23;;;;;;;;;;;;;;;;;;1045739;28;3814;-57
2022/09/13 01:10:55;;;;;;;;;;;;;;;;;;1044478;28;3957;-56
2022/09/13 01:11:32;;;;;;;;;;;;;;;;;;1044319;28;4225;-57
2022/09/13 01:12:07;;;;;;;;;;;;;;;;;;1043621;28;4042;-57
2022/09/13 01:12:46;;;;;;;;;;;;;;;;;;1043450;28;4362;-59
2022/09/13 01:13:24;;;;;;;;;;;;;;;;;;1046228;28;3913;-58
2022/09/13 01:13:56;;;;;;;;;;;;;;;;;;1045219;28;3333;-55
2022/09/13 01:14:26;;;;;;;;;;;;;;;;;;1046091;28;3885;-57
2022/09/13 01:14:58;;;;;;;;;;;;;;;;;;1046439;28;3269;-58
2022/09/13 01:15:29;;;;;;;;;;;;;;;;;;1043727;28;3849;-57
2022/09/13 01:15:59;;;;;;;;;;;;;;;;;;1049044;28;4510;-57
2022/09/13 01:16:30;;;;;;;;;;;;;;;;;;1048434;28;3612;-57
2022/09/13 01:17:01;;;;;;;;;;;;;;;;;;1049103;28;3894;-58
2022/09/13 01:17:32;;;;;;;;;;;;;;;;;;1043037;28;3841;-55
2022/09/13 01:18:03;;;;;;;;;;;;;;;;;;1043980;28;4057;-57
2022/09/13 01:18:33;;;;;;;;;;;;;;;;;;1042680;28;3611;-58
2022/09/13 01:19:03;;;;;;;;;;;;;;;;;;1041700;28;4495;-61
2022/09/13 01:19:34;;;;;;;;;;;;;;;;;;1043858;28;2475;-58
2022/09/13 01:20:06;;;;;;;;;;;;;;;;;;1039967;28;3986;-57
2022/09/13 01:20:45;;;;;;;;;;;;;;;;;;1040183;28;3309;-57
2022/09/13 01:21:31;;;;;;;;;;;;;;;;;;1045490;28;4531;-58
2022/09/13 01:22:11;;;;;;;;;;;;;;;;;;1041629;28;4005;-56
2022/09/13 01:23:00;;;;;;;;;;;;;;;;;;1043357;28;3594;-58
2022/09/13 01:23:33;;;;;;;;;;;;;;;;;;1043456;28;4102;-59
2022/09/13 01:24:22;;;;;;;;;;;;;;;;;;1043071;28;4025;-58
2022/09/13 01:25:01;;;;;;;;;;;;;;;;;;1042701;28;3043;-55
2022/09/13 01:25:41;;;;;;;;;;;;;;;;;;1042960;28;4551;-57
2022/09/13 01:26:30;;;;;;;;;;;;;;;;;;1043258;28;4069;-57
2022/09/13 01:27:18;;;;;;;;;;;;;;;;;;1045005;28;4268;-58
2022/09/13 01:28:07;;;;;;;;;;;;;;;;;;1044589;28;3857;-58
2022/09/13 01:28:49;;;;;;;;;;;;;;;;;;1044767;28;3718;-57
2022/09/13 01:29:27;;;;;;;;;;;;;;;;;;1043483;28;4220;-59
2022/09/13 01:30:00;;;;;;;;;;;;;;;;;;1043143;28;2849;-55
2022/09/13 01:30:36;;;;;;;;;;;;;;;;;;1051532;28;5072;-54
2022/09/13 01:31:10;;;;;;;;;;;;;;;;;;1050450;28;4084;-59
2022/09/13 01:31:49;;;;;;;;;;;;;;;;;;1051116;28;3846;-53
2022/09/13 01:32:40;;;;;;;;;;;;;;;;;;1046595;28;4522;-57
2022/09/13 01:33:28;;;;;;;;;;;;;;;;;;1044013;28;4115;-56
2022/09/13 01:34:13;;;;;;;;;;;;;;;;;;1045999;28;3522;-58
2022/09/13 01:34:56;;;;;;;;;;;;;;;;;;1047705;28;3940;-56
2022/09/13 01:35:26;;;;;;;;;;;;;;;;;;1047321;28;4158;-57
2022/09/13 01:36:12;;;;;;;;;;;;;;;;;;1047531;28;3716;-58
2022/09/13 01:36:45;;;;;;;;;;;;;;;;;;1047273;28;4387;-57
2022/09/13 01:37:36;;;;;;;;;;;;;;;;;;1048001;28;3810;-58
2022/09/13 01:38:22;;;;;;;;;;;;;;;;;;1047822;28;4026;-58
2022/09/13 01:38:56;;;;;;;;;;;;;;;;;;1047664;28;4058;-59
2022/09/13 01:39:46;;;;;;;;;;;;;;;;;;1047801;28;3843;-58
2022/09/13 01:40:23;;;;;;;;;;;;;;;;;;1046856;28;4296;-58
2022/09/13 01:41:12;;;;;;;;;;;;;;;;;;1047578;28;3768;-56
2022/09/13 01:41:48;;;;;;;;;;;;;;;;;;1048305;28;4858;-58
2022/09/13 01:42:36;;;;;;;;;;;;;;;;;;1047274;28;4079;-57
2022/09/13 01:43:16;;;;;;;;;;;;;;;;;;1047066;28;3940;-58
2022/09/13 01:44:06;;;;;;;;;;;;;;;;;;1048502;28;3559;-56
2022/09/13 01:44:42;;;;;;;;;;;;;;;;;;1047582;28;3876;-58
2022/09/13 01:45:20;;;;;;;;;;;;;;;;;;1048379;28;3909;-58
2022/09/13 01:45:54;;;;;;;;;;;;;;;;;;1048602;28;1684;-57
2022/09/13 01:46:31;;;;;;;;;;;;;;;;;;1047096;28;4193;-57
2022/09/13 01:47:10;;;;;;;;;;;;;;;;;;1052066;28;3938;-57
2022/09/13 01:47:44;;;;;;;;;;;;;;;;;;1052232;28;2292;-59
2022/09/13 01:48:22;;;;;;;;;;;;;;;;;;1047149;28;4184;-58
2022/09/13 01:48:55;;;;;;;;;;;;;;;;;;1040993;28;3805;-57
2022/09/13 01:49:33;;;;;;;;;;;;;;;;;;1039591;28;4433;-57
2022/09/13 01:50:24;;;;;;;;;;;;;;;;;;1041960;28;4022;-58
2022/09/13 01:51:05;;;;;;;;;;;;;;;;;;1048062;28;2177;-58
2022/09/13 01:51:38;;;;;;;;;;;;;;;;;;1047063;28;3621;-55
2022/09/13 01:52:32;;;;;;;;;;;;;;;;;;1047611;28;3955;-57
2022/09/13 01:53:23;;;;;;;;;;;;;;;;;;1035137;28;4052;-58
2022/09/13 01:54:11;;;;;;;;;;;;;;;;;;1043230;28;2394;-57
2022/09/13 01:54:47;;;;;;;;;;;;;;;;;;1044446;28;3999;-57
2022/09/13 01:55:22;;;;;;;;;;;;;;;;;;1046143;28;3900;-57
2022/09/13 01:55:59;;;;;;;;;;;;;;;;;;1043283;28;3542;-58
2022/09/13 01:56:37;;;;;;;;;;;;;;;;;;1043155;28;4051;-57
2022/09/13 01:57:11;;;;;;;;;;;;;;;;;;1040806;28;4073;-59
2022/09/13 01:57:45;;;;;;;;;;;;;;;;;;1043042;28;2985;-57
2022/09/13 01:58:22;;;;;;;;;;;;;;;;;;1044996;28;3927;-56
2022/09/13 01:58:58;;;;;;;;;;;;;;;;;;1045271;28;3505;-58
2022/09/13 01:59:34;;;;;;;;;;;;;;;;;;1047255;28;3967;-57
2022/09/13 02:00:08;;;;;;;;;;;;;;;;;;1046745;28;3993;-59
2022/09/13 02:00:44;;;;;;;;;;;;;;;;;;1047317;28;2624;-58
2022/09/13 02:01:20;;;;;;;;;;;;;;;;;;1043688;28;4191;-59
2022/09/13 02:01:56;;;;;;;;;;;;;;;;;;1044615;28;3528;-59
2022/09/13 02:02:26;;;;;;;;;;;;;;;;;;1044725;28;3741;-58
2022/09/13 02:03:03;;;;;;;;;;;;;;;;;;1044874;28;3869;-58
2022/09/13 02:03:40;;;;;;;;;;;;;;;;;;1046708;28;4172;-58
2022/09/13 02:04:22;;;;;;;;;;;;;;;;;;1047996;28;4068;-58
2022/09/13 02:04:54;;;;;;;;;;;;;;;;;;1048488;28;4344;-59
2022/09/13 02:05:45;;;;;;;;;;;;;;;;;;1048499;28;4029;-55
2022/09/13 02:06:19;;;;;;;;;;;;;;;;;;1048220;28;3949;-59
2022/09/13 02:06:54;;;;;;;;;;;;;;;;;;1047433;28;3580;-58
2022/09/13 02:07:34;;;;;;;;;;;;;;;;;;1047398;28;3912;-57
2022/09/13 02:08:12;;;;;;;;;;;;;;;;;;1047421;28;4082;-56
2022/09/13 02:08:44;;;;;;;;;;;;;;;;;;1043399;28;2944;-55
2022/09/13 02:09:17;;;;;;;;;;;;;;;;;;1044181;28;4088;-56
2022/09/13 02:09:50;;;;;;;;;;;;;;;;;;1043255;28;3199;-56
2022/09/13 02:10:24;;;;;;;;;;;;;;;;;;1044708;28;3882;-57
2022/09/13 02:10:58;;;;;;;;;;;;;;;;;;1047721;28;3922;-59
2022/09/13 02:11:30;;;;;;;;;;;;;;;;;;1048595;28;3964;-58
2022/09/13 02:12:05;;;;;;;;;;;;;;;;;;1047435;28;4085;-59
2022/09/13 02:12:36;;;;;;;;;;;;;;;;;;1042420;28;3731;-58
2022/09/13 02:13:10;;;;;;;;;;;;;;;;;;1043184;28;4022;-57
2022/09/13 02:14:05;;;;;;;;;;;;;;;;;;1044176;28;2111;-58
2022/09/13 02:14:38;;;;;;;;;;;;;;;;;;1047749;28;3758;-58
2022/09/13 02:15:13;;;;;;;;;;;;;;;;;;1046292;28;3946;-56
2022/09/13 02:15:45;;;;;;;;;;;;;;;;;;1050578;28;3392;-57
2022/09/13 02:16:25;;;;;;;;;;;;;;;;;;1046890;28;3930;-59
2022/09/13 02:16:58;;;;;;;;;;;;;;;;;;1048232;28;3748;-57
2022/09/13 02:17:34;;;;;;;;;;;;;;;;;;1044010;28;4079;-57
2022/09/13 02:18:08;;;;;;;;;;;;;;;;;;1044433;28;4029;-55
2022/09/13 02:18:40;;;;;;;;;;;;;;;;;;1044569;28;3625;-57
2022/09/13 02:19:14;;;;;;;;;;;;;;;;;;1045458;28;3993;-58
2022/09/13 02:19:54;;;;;;;;;;;;;;;;;;1049163;28;3750;-56
2022/09/13 02:20:27;;;;;;;;;;;;;;;;;;1045279;28;4108;-59
2022/09/13 02:21:00;;;;;;;;;;;;;;;;;;1047652;28;3455;-59
2022/09/13 02:21:32;;;;;;;;;;;;;;;;;;1046317;28;4017;-56
2022/09/13 02:22:05;;;;;;;;;;;;;;;;;;1049600;28;4051;-57
2022/09/13 02:22:37;;;;;;;;;;;;;;;;;;1048204;28;3102;-58
2022/09/13 02:23:12;;;;;;;;;;;;;;;;;;1049777;28;3988;-57
2022/09/13 02:23:50;;;;;;;;;;;;;;;;;;1047839;28;3484;-54
2022/09/13 02:24:36;;;;;;;;;;;;;;;;;;1048407;28;4231;-58
2022/09/13 02:25:10;;;;;;;;;;;;;;;;;;1045628;28;4061;-57
2022/09/13 02:25:42;;;;;;;;;;;;;;;;;;1046027;28;2120;-57
2022/09/13 02:26:13;;;;;;;;;;;;;;;;;;1046977;28;4076;-55
2022/09/13 02:26:45;;;;;;;;;;;;;;;;;;1044360;28;3756;-56
2022/09/13 02:27:19;;;;;;;;;;;;;;;;;;1049337;28;4408;-56
2022/09/13 02:27:52;;;;;;;;;;;;;;;;;;1048621;28;3703;-58
2022/09/13 02:28:27;;;;;;;;;;;;;;;;;;1045169;28;4501;-59
2022/09/13 02:29:01;;;;;;;;;;;;;;;;;;1045433;28;3569;-55
2022/09/13 02:29:32;;;;;;;;;;;;;;;;;;1045587;28;4118;-57
2022/09/13 02:30:06;;;;;;;;;;;;;;;;;;1046063;28;4078;-57
2022/09/13 02:30:39;;;;;;;;;;;;;;;;;;1049029;28;3298;-58
2022/09/13 02:31:10;;;;;;;;;;;;;;;;;;1049145;28;3941;-57
2022/09/13 02:31:50;;;;;;;;;;;;;;;;;;1047785;28;2889;-59
2022/09/13 02:32:22;;;;;;;;;;;;;;;;;;1049410;28;4010;-59
2022/09/13 02:32:55;;;;;;;;;;;;;;;;;;1046779;28;3659;-55
2022/09/13 02:33:29;;;;;;;;;;;;;;;;;;1046040;28;3807;-58
2022/09/13 02:34:16;;;;;;;;;;;;;;;;;;1044601;28;3947;-54
2022/09/13 02:35:06;;;;;;;;;;;;;;;;;;1044209;28;3666;-58
2022/09/13 02:35:39;;;;;;;;;;;;;;;;;;1044349;28;5176;-58
2022/09/13 02:36:16;;;;;;;;;;;;;;;;;;1044316;28;3893;-58
2022/09/13 02:36:47;;;;;;;;;;;;;;;;;;1042741;28;3489;-57
2022/09/13 02:37:18;;;;;;;;;;;;;;;;;;1044156;28;4193;-58
2022/09/13 02:37:52;;;;;;;;;;;;;;;;;;1045036;28;3519;-56
2022/09/13 02:38:25;;;;;;;;;;;;;;;;;;1043674;28;4446;-58
2022/09/13 02:38:58;;;;;;;;;;;;;;;;;;1043483;28;3739;-56
2022/09/13 02:39:29;;;;;;;;;;;;;;;;;;1043900;28;4025;-58
2022/09/13 02:40:02;;;;;;;;;;;;;;;;;;1044713;28;3905;-57
2022/09/13 02:40:36;;;;;;;;;;;;;;;;;;1044479;28;4134;-54
2022/09/13 02:41:16;;;;;;;;;;;;;;;;;;1043774;28;4092;-57
2022/09/13 02:41:47;;;;;;;;;;;;;;;;;;1044490;28;2869;-58
2022/09/13 02:42:20;;;;;;;;;;;;;;;;;;1044752;28;4208;-57
2022/09/13 02:42:53;;;;;;;;;;;;;;;;;;1045192;28;3417;-58
2022/09/13 02:43:27;;;;;;;;;;;;;;;;;;1037920;28;3892;-58
2022/09/13 02:44:27;;;;;;;;;;;;;;;;;;1038079;28;3842;-57
2022/09/13 02:44:58;;;;;;;;;;;;;;;;;;1032539;28;3678;-59
2022/09/13 02:45:32;;;;;;;;;;;;;;;;;;1051854;28;3904;-58
2022/09/13 02:46:05;;;;;;;;;;;;;;;;;;1049220;28;4213;-58
2022/09/13 02:46:38;;;;;;;;;;;;;;;;;;1049685;28;1704;-55
2022/09/13 02:47:10;;;;;;;;;;;;;;;;;;1040520;28;4082;-57
2022/09/13 02:47:44;;;;;;;;;;;;;;;;;;1042308;28;2239;-58
2022/09/13 02:48:27;;;;;;;;;;;;;;;;;;1042716;28;4237;-58
2022/09/13 02:49:07;;;;;;;;;;;;;;;;;;1043512;28;4041;-56
2022/09/13 02:49:59;;;;;;;;;;;;;;;;;;1043905;28;3931;-58
2022/09/13 02:50:35;;;;;;;;;;;;;;;;;;1045563;28;4960;-57
2022/09/13 02:51:16;;;;;;;;;;;;;;;;;;1045038;28;4165;-56
2022/09/13 02:52:04;;;;;;;;;;;;;;;;;;1044360;28;3736;-56
2022/09/13 02:52:40;;;;;;;;;;;;;;;;;;1043856;28;4039;-58
2022/09/13 02:53:24;;;;;;;;;;;;;;;;;;1044398;28;3892;-58
2022/09/13 02:54:01;;;;;;;;;;;;;;;;;;1043377;28;3760;-57
2022/09/13 02:54:35;;;;;;;;;;;;;;;;;;1043327;28;3971;-57
2022/09/13 02:55:24;;;;;;;;;;;;;;;;;;1043209;28;4168;-58
2022/09/13 02:56:03;;;;;;;;;;;;;;;;;;1044553;28;3454;-56
2022/09/13 02:56:36;;;;;;;;;;;;;;;;;;1039807;28;4195;-57
2022/09/13 02:57:32;;;;;;;;;;;;;;;;;;1039662;28;4410;-59
2022/09/13 02:58:17;;;;;;;;;;;;;;;;;;1037887;28;4788;-59
2022/09/13 02:59:07;;;;;;;;;;;;;;;;;;1043275;28;3455;-59
2022/09/13 02:59:37;;;;;;;;;;;;;;;;;;1044191;28;3948;-57
2022/09/13 03:00:08;;;;;;;;;;;;;;;;;;1042788;28;4055;-58
2022/09/13 03:00:40;;;;;;;;;;;;;;;;;;1051445;28;3554;-57
2022/09/13 03:01:10;;;;;;;;;;;;;;;;;;1052513;28;3981;-57
2022/09/13 03:01:44;;;;;;;;;;;;;;;;;;1048355;28;3547;-59
2022/09/13 03:02:16;;;;;;;;;;;;;;;;;;1048884;28;4011;-58
2022/09/13 03:02:47;;;;;;;;;;;;;;;;;;1039517;28;3743;-59
2022/09/13 03:03:17;;;;;;;;;;;;;;;;;;1042776;28;4127;-58
2022/09/13 03:03:48;;;;;;;;;;;;;;;;;;1044130;28;3721;-58
2022/09/13 03:04:18;;;;;;;;;;;;;;;;;;1046412;28;4083;-58
2022/09/13 03:04:49;;;;;;;;;;;;;;;;;;1044266;28;3650;-58
2022/09/13 03:05:19;;;;;;;;;;;;;;;;;;1044193;28;3822;-59
2022/09/13 03:05:50;;;;;;;;;;;;;;;;;;1041787;28;3637;-58
2022/09/13 03:06:23;;;;;;;;;;;;;;;;;;1045643;28;4164;-58
2022/09/13 03:06:54;;;;;;;;;;;;;;;;;;1042677;28;3885;-58
2022/09/13 03:07:24;;;;;;;;;;;;;;;;;;1044676;28;3949;-58
2022/09/13 03:07:54;;;;;;;;;;;;;;;;;;1043335;28;3324;-57
2022/09/13 03:08:25;;;;;;;;;;;;;;;;;;1044872;28;3981;-59
2022/09/13 03:08:57;;;;;;;;;;;;;;;;;;1044319;28;3893;-59
2022/09/13 03:09:28;;;;;;;;;;;;;;;;;;1043298;28;3923;-56
2022/09/13 03:10:04;;;;;;;;;;;;;;;;;;1043943;28;3970;-58
2022/09/13 03:10:53;;;;;;;;;;;;;;;;;;1041407;28;3589;-58
2022/09/13 03:11:42;;;;;;;;;;;;;;;;;;1043740;28;4030;-59
2022/09/13 03:12:19;;;;;;;;;;;;;;;;;;1043377;28;3912;-58
2022/09/13 03:13:10;;;;;;;;;;;;;;;;;;1043527;28;3713;-57
2022/09/13 03:14:03;;;;;;;;;;;;;;;;;;1044998;28;3867;-57
2022/09/13 03:14:41;;;;;;;;;;;;;;;;;;1040024;28;3938;-58
2022/09/13 03:15:20;;;;;;;;;;;;;;;;;;1040456;28;3794;-56
2022/09/13 03:15:57;;;;;;;;;;;;;;;;;;1039835;28;3944;-58
2022/09/13 03:16:27;;;;;;;;;;;;;;;;;;1043137;28;3938;-58
2022/09/13 03:17:06;;;;;;;;;;;;;;;;;;1041092;28;3134;-59
2022/09/13 03:17:46;;;;;;;;;;;;;;;;;;1041616;28;3731;-57
2022/09/13 03:18:46;;;;;;;;;;;;;;;;;;1041258;28;3894;-59
2022/09/13 03:19:24;;;;;;;;;;;;;;;;;;1038222;28;4090;-57
2022/09/13 03:20:04;;;;;;;;;;;;;;;;;;1044492;28;3779;-57
2022/09/13 03:20:49;;;;;;;;;;;;;;;;;;1044175;28;3670;-55
2022/09/13 03:21:23;;;;;;;;;;;;;;;;;;1043620;28;3865;-57
2022/09/13 03:22:08;;;;;;;;;;;;;;;;;;1044289;28;3719;-58
2022/09/13 03:22:48;;;;;;;;;;;;;;;;;;1038805;28;3619;-59
2022/09/13 03:23:21;;;;;;;;;;;;;;;;;;1035933;28;3863;-56
2022/09/13 03:24:06;;;;;;;;;;;;;;;;;;1043893;28;3765;-58
2022/09/13 03:24:45;;;;;;;;;;;;;;;;;;1043320;28;4331;-57
2022/09/13 03:25:18;;;;;;;;;;;;;;;;;;1040914;28;3924;-57
2022/09/13 03:26:07;;;;;;;;;;;;;;;;;;1043989;28;3233;-58
2022/09/13 03:26:42;;;;;;;;;;;;;;;;;;1043194;28;3868;-54
2022/09/13 03:27:19;;;;;;;;;;;;;;;;;;1043538;28;3855;-59
2022/09/13 03:27:55;;;;;;;;;;;;;;;;;;1044955;28;3693;-56
2022/09/13 03:28:44;;;;;;;;;;;;;;;;;;1042142;28;3948;-59
2022/09/13 03:29:31;;;;;;;;;;;;;;;;;;1044881;28;4571;-54
2022/09/13 03:30:06;;;;;;;;;;;;;;;;;;1045124;28;4005;-59
2022/09/13 03:30:39;;;;;;;;;;;;;;;;;;1040111;28;2662;-58
2022/09/13 03:31:18;;;;;;;;;;;;;;;;;;1041219;28;4074;-59
2022/09/13 03:31:51;;;;;;;;;;;;;;;;;;1042295;28;3719;-57
2022/09/13 03:32:42;;;;;;;;;;;;;;;;;;1045250;28;4006;-59
2022/09/13 03:33:38;;;;;;;;;;;;;;;;;;1038843;28;4281;-58
2022/09/13 03:34:31;;;;;;;;;;;;;;;;;;1044768;28;4112;-56
2022/09/13 03:35:27;;;;;;;;;;;;;;;;;;1044495;28;3867;-58
2022/09/13 03:36:18;;;;;;;;;;;;;;;;;;1041999;28;3917;-58
2022/09/13 03:36:56;;;;;;;;;;;;;;;;;;1039109;28;3791;-58
2022/09/13 03:37:39;;;;;;;;;;;;;;;;;;1039272;28;3851;-58
2022/09/13 03:38:12;;;;;;;;;;;;;;;;;;1039005;28;4132;-56
2022/09/13 03:38:49;;;;;;;;;;;;;;;;;;1033080;28;2909;-59
2022/09/13 03:39:29;;;;;;;;;;;;;;;;;;1029473;28;4063;-58
2022/09/13 03:40:04;;;;;;;;;;;;;;;;;;1029864;28;3971;-57
2022/09/13 03:40:34;;;;;;;;;;;;;;;;;;1038901;28;4008;-57
2022/09/13 03:41:08;;;;;;;;;;;;;;;;;;1040301;28;4243;-57
2022/09/13 03:41:41;;;;;;;;;;;;;;;;;;1040209;28;2966;-59
2022/09/13 03:42:15;;;;;;;;;;;;;;;;;;1039917;28;4113;-57
2022/09/13 03:42:54;;;;;;;;;;;;;;;;;;1040234;28;2762;-58
2022/09/13 03:43:38;;;;;;;;;;;;;;;;;;1042230;28;4070;-59
2022/09/13 03:44:10;;;;;;;;;;;;;;;;;;1044524;28;3918;-59
2022/09/13 03:44:43;;;;;;;;;;;;;;;;;;1044976;28;3319;-57
2022/09/13 03:45:15;;;;;;;;;;;;;;;;;;1041297;28;4047;-59
2022/09/13 03:45:48;;;;;;;;;;;;;;;;;;1038166;28;3759;-57
2022/09/13 03:46:25;;;;;;;;;;;;;;;;;;1034474;28;4096;-58
2022/09/13 03:46:57;;;;;;;;;;;;;;;;;;1039366;28;3896;-59
2022/09/13 03:47:31;;;;;;;;;;;;;;;;;;1043297;28;3732;-59
2022/09/13 03:48:03;;;;;;;;;;;;;;;;;;1042030;28;4456;-59
2022/09/13 03:48:36;;;;;;;;;;;;;;;;;;1044650;28;3919;-58
2022/09/13 03:49:11;;;;;;;;;;;;;;;;;;1039321;28;3835;-55
2022/09/13 03:49:41;;;;;;;;;;;;;;;;;;1044024;28;2449;-59
2022/09/13 03:50:16;;;;;;;;;;;;;;;;;;1042683;28;4326;-58
2022/09/13 03:50:47;;;;;;;;;;;;;;;;;;1045146;28;2739;-54
2022/09/13 03:51:18;;;;;;;;;;;;;;;;;;1042305;28;3854;-56
2022/09/13 03:51:49;;;;;;;;;;;;;;;;;;1040011;28;3957;-58
2022/09/13 03:52:20;;;;;;;;;;;;;;;;;;1038272;28;4219;-59
2022/09/13 03:52:55;;;;;;;;;;;;;;;;;;1033395;28;3665;-58
2022/09/13 03:53:27;;;;;;;;;;;;;;;;;;1032585;28;3919;-58
2022/09/13 03:53:59;;;;;;;;;;;;;;;;;;1034046;28;3724;-57
2022/09/13 03:54:38;;;;;;;;;;;;;;;;;;1036152;28;3896;-57
2022/09/13 03:55:08;;;;;;;;;;;;;;;;;;1039132;28;3858;-58
2022/09/13 03:55:41;;;;;;;;;;;;;;;;;;1040308;28;3734;-55
2022/09/13 03:56:15;;;;;;;;;;;;;;;;;;1035647;28;4027;-58
2022/09/13 03:57:05;;;;;;;;;;;;;;;;;;1036691;28;2990;-59
2022/09/13 03:57:35;;;;;;;;;;;;;;;;;;1039221;28;3820;-59
2022/09/13 03:58:06;;;;;;;;;;;;;;;;;;1040184;28;4044;-58
2022/09/13 03:58:36;;;;;;;;;;;;;;;;;;1039728;28;3671;-55
2022/09/13 03:59:06;;;;;;;;;;;;;;;;;;1040313;28;4018;-59
2022/09/13 03:59:38;;;;;;;;;;;;;;;;;;1038974;28;2808;-60
2022/09/13 04:00:09;;;;;;;;;;;;;;;;;;1039579;28;3883;-57
2022/09/13 04:00:40;;;;;;;;;;;;;;;;;;1040421;28;3805;-56
2022/09/13 04:01:10;;;;;;;;;;;;;;;;;;1039977;28;4274;-56
2022/09/13 04:01:42;;;;;;;;;;;;;;;;;;1040271;28;2966;-59
2022/09/13 04:02:19;;;;;;;;;;;;;;;;;;1038655;28;3916;-59
2022/09/13 04:02:49;;;;;;;;;;;;;;;;;;1038715;28;3725;-58
2022/09/13 04:03:20;;;;;;;;;;;;;;;;;;1039998;28;4202;-57
2022/09/13 04:03:50;;;;;;;;;;;;;;;;;;1041664;28;3789;-58
2022/09/13 04:04:20;;;;;;;;;;;;;;;;;;1041785;28;5062;-54
2022/09/13 04:04:51;;;;;;;;;;;;;;;;;;1039351;28;2997;-57
2022/09/13 04:05:22;;;;;;;;;;;;;;;;;;1035778;28;3825;-56
2022/09/13 04:05:53;;;;;;;;;;;;;;;;;;1039394;28;3766;-58
2022/09/13 04:06:23;;;;;;;;;;;;;;;;;;1040121;28;4137;-56